Airfield :
LOGIN :

Register | Disclaimer

   EN    FR    IT 

 










Legend :    VFR   Marginal VFR   IFR   Intensive IFR   Very Intensive IFR
Visi :
Ceiling :
>= 8 km
>= 3000ft
5 to 8 km
1000 to 3000 ft
1500m to 5 km
500 to 1000 ft
800 to 1500m
200 to 500 ft
< 800m
< 200 ft
Symbols :   Thunderstorms  Fog  Heavy snow  Heavy precipitations  Wind > 20 kt
SIGMETs :     Misc.  Thunderstorms  Icing  Turbulence  Mountain Waves  Volcanic Ashes






- Airport Elevation : 1367 ft
- IATA code : FDH


EDNY - Friedrichshafen

CURRENT METAR :
  • 261120Z 23004KT 180V280 4600 1900 -RA BR OVC004 M01/M01 Q1031

EXPIRED METARs :
  • 261050Z 22005KT 2000 BR OVC004 M01/M01 Q1032
  • 261020Z 26005KT 220V300 3600 -RA BR OVC004 M01/M01 Q1032
  • 260950Z 21005KT 4400 BR OVC004 M00/M00 Q1032
  • 260920Z 24003KT 200V270 2400 BR OVC002 M01/M01 Q1032
  • 260850Z VRB02KT 1300 R24/2000N BR OVC002 M01/M01 Q1032

TAF TAF EDNY
Valid from the 26 at 12:00 until the 27 at 12:00 UTC


261100Z 2612/2712 VRB03KT 2500 BR OVC004
BECMG 2612/2615 8000 FEW006
BECMG 2616/2619 4000 BR
BECMG 2620/2624 0400 FZFG VV001



MET'MAP, your aeronautical weather chart ! - Copyright ORBIFLY December 2007 - Disclaimer

ORBIFLY MET'MAP TEAM :

Programming & Development : Alexandra Zaïnal
Original concept : Baudouin d'Aumeries
Technical & hardware support : Manuel Goepfert
Assistance : Marc-Olivier Méhu

Contact : metmap@orbifly.com




SOURCES & CREDITS :

   NOAA